Time;durP1;ratioP1;P1;durP2;ratioP2;P2;SDS_P1;SDS_P2;PMS_P1;PMS_P2;Temp;Humidity;BMP_temperature;BMP_pressure;BME280_temperature;BME280_humidity;BME280_pressure;Samples;Min_cycle;Max_cycle;Signal;HPM_P1;HPM_P2
2022/03/25 00:01:51;;;;;;;19.98;11.65;;;;;;;11.23;37.06;101453.47;4920144;29;20024;-76
2022/03/25 00:04:37;;;;;;;25.80;13.23;;;;;;;10.80;37.31;101457.28;4921990;29;20032;-73
2022/03/25 00:07:22;;;;;;;24.27;14.50;;;;;;;10.79;37.60;101455.56;4929457;29;20039;-76
2022/03/25 00:10:08;;;;;;;25.38;14.43;;;;;;;10.84;37.80;101456.38;4906323;29;20028;-75
2022/03/25 00:12:54;;;;;;;26.80;14.60;;;;;;;10.91;37.32;101452.84;4919523;29;20048;-75
2022/03/25 00:15:41;;;;;;;26.95;15.27;;;;;;;10.69;37.63;101445.16;4905868;29;20350;-75
2022/03/25 00:18:27;;;;;;;22.42;14.20;;;;;;;11.06;37.34;101450.13;4919903;29;20040;-75
2022/03/25 00:21:12;;;;;;;24.05;12.80;;;;;;;10.42;38.42;101440.94;4919765;29;20032;-74
2022/03/25 00:23:58;;;;;;;18.60;12.05;;;;;;;10.52;38.44;101441.75;4920588;29;20052;-75
2022/03/25 00:26:44;;;;;;;23.55;11.25;;;;;;;10.29;37.96;101436.63;4920474;29;20123;-75
2022/03/25 00:29:30;;;;;;;20.70;11.23;;;;;;;10.26;38.92;101431.41;4920463;29;20373;-75
2022/03/25 00:32:16;;;;;;;22.20;10.32;;;;;;;10.32;38.13;101433.13;4919728;29;20465;-74
2022/03/25 00:35:04;;;;;;;21.30;10.70;;;;;;;10.13;38.44;101427.97;4920813;29;20055;-75
2022/03/25 00:37:50;;;;;;;18.92;10.55;;;;;;;10.23;38.31;101433.16;4920179;29;20063;-74
2022/03/25 00:40:36;;;;;;;19.13;11.13;;;;;;;10.36;38.36;101433.09;4920677;29;20031;-76
2022/03/25 00:43:22;;;;;;;22.20;10.30;;;;;;;10.09;38.70;101428.88;4920811;29;20028;-75
2022/03/25 00:46:08;;;;;;;19.35;9.50;;;;;;;10.07;38.59;101424.50;4919233;29;20040;-74
2022/03/25 00:48:55;;;;;;;18.00;9.63;;;;;;;10.28;37.86;101426.19;4919891;29;20064;-75
2022/03/25 00:51:42;;;;;;;19.58;10.05;;;;;;;10.13;38.36;101421.00;4919793;29;20036;-76
2022/03/25 00:54:27;;;;;;;16.70;8.90;;;;;;;10.19;37.96;101421.84;4919582;29;20445;-74
2022/03/25 00:57:13;;;;;;;19.42;9.90;;;;;;;9.96;38.56;101435.00;4918950;29;20035;-74
2022/03/25 01:00:00;;;;;;;21.50;9.65;;;;;;;9.98;38.89;101427.16;4919495;29;20028;-75
2022/03/25 01:02:45;;;;;;;18.33;9.48;;;;;;;9.94;38.76;101439.34;4919316;29;20453;-74
2022/03/25 01:05:32;;;;;;;20.55;10.00;;;;;;;10.15;38.14;101443.69;4919703;29;20126;-75
2022/03/25 01:08:18;;;;;;;22.90;9.57;;;;;;;10.25;38.29;101440.16;4918788;29;20028;-74
2022/03/25 01:11:04;;;;;;;16.98;9.52;;;;;;;10.16;37.97;101431.47;4919402;29;20394;-74
2022/03/25 01:13:50;;;;;;;20.75;9.60;;;;;;;9.81;38.07;101442.88;4906074;28;20048;-75
2022/03/25 01:16:36;;;;;;;18.45;9.88;;;;;;;9.98;38.14;101442.84;4919160;29;20028;-75
2022/03/25 01:19:22;;;;;;;19.95;10.45;;;;;;;9.88;37.91;101451.59;4892001;29;20055;-74
2022/03/25 01:22:08;;;;;;;21.35;10.40;;;;;;;9.88;38.25;101455.09;4919565;29;20141;-74
2022/03/25 01:24:54;;;;;;;23.85;10.80;;;;;;;10.15;37.50;101454.16;4918534;29;20100;-74
2022/03/25 01:27:40;;;;;;;20.75;10.00;;;;;;;10.16;37.88;101455.88;4918796;29;20377;-74
2022/03/25 01:30:26;;;;;;;15.85;9.70;;;;;;;10.20;37.91;101455.00;4905313;29;20032;-74
2022/03/25 01:33:13;;;;;;;19.70;10.20;;;;;;;10.04;37.89;101467.25;4892295;29;20036;-75
2022/03/25 01:35:59;;;;;;;17.95;10.27;;;;;;;9.90;37.58;101465.56;4920154;29;20036;-74
2022/03/25 01:38:45;;;;;;;17.65;9.75;;;;;;;9.83;37.98;101463.81;4919537;29;20088;-75
2022/03/25 01:41:32;;;;;;;18.50;10.30;;;;;;;9.92;37.36;101479.50;4919467;29;20091;-74
2022/03/25 01:44:25;;;;;;;18.52;9.85;;;;;;;9.89;38.13;101480.38;4918635;29;20462;-74
2022/03/25 01:47:16;;;;;;;21.85;10.07;;;;;;;10.14;37.76;101489.06;4918657;29;20111;-75
2022/03/25 01:50:02;;;;;;;19.98;10.77;;;;;;;9.67;38.14;101488.28;4918017;29;20032;-74
2022/03/25 01:52:50;;;;;;;26.95;11.43;;;;;;;9.90;37.90;101494.34;4918593;29;20028;-74
2022/03/25 01:55:38;;;;;;;19.83;11.02;;;;;;;9.62;37.89;101493.50;4891774;29;20043;-74
2022/03/25 01:58:26;;;;;;;19.15;11.00;;;;;;;9.59;38.29;101501.38;4918555;29;20228;-74
2022/03/25 02:01:12;;;;;;;21.58;11.07;;;;;;;9.74;38.24;101506.56;4922189;29;20114;-74
2022/03/25 02:03:58;;;;;;;23.42;11.95;;;;;;;9.76;37.88;101515.31;4921894;29;20060;-75
2022/03/25 02:06:44;;;;;;;22.15;11.60;;;;;;;9.71;38.27;101524.91;4922110;29;20394;-74
2022/03/25 02:09:30;;;;;;;21.17;11.50;;;;;;;9.76;37.90;101514.44;4922054;29;20094;-74
2022/03/25 02:12:17;;;;;;;20.25;12.15;;;;;;;9.95;38.27;101527.50;4922134;29;20032;-74
2022/03/25 02:15:05;;;;;;;20.58;12.50;;;;;;;10.11;37.51;101530.97;4921520;29;20056;-75
2022/03/25 02:17:50;;;;;;;21.23;11.95;;;;;;;10.02;37.85;101533.59;4909027;29;20481;-75
2022/03/25 02:20:40;;;;;;;19.88;11.38;;;;;;;9.72;38.29;101536.22;4921871;29;20032;-74
2022/03/25 02:23:25;;;;;;;18.27;11.93;;;;;;;9.83;37.96;101542.34;4922818;29;20103;-75
2022/03/25 02:26:11;;;;;;;20.33;12.68;;;;;;;10.09;37.57;101537.97;4915350;29;20087;-75
2022/03/25 02:28:59;;;;;;;23.90;12.77;;;;;;;10.09;37.13;101541.44;4929451;29;20087;-76
2022/03/25 02:31:44;;;;;;;20.40;12.60;;;;;;;9.66;38.27;101546.72;4922420;29;20120;-75
2022/03/25 02:34:30;;;;;;;24.23;12.18;;;;;;;9.66;37.99;101541.50;4921893;29;20453;-74
2022/03/25 02:37:17;;;;;;;24.13;12.30;;;;;;;9.73;38.71;101551.94;4921492;29;20043;-73
2022/03/25 02:40:03;;;;;;;28.63;12.75;;;;;;;9.86;38.01;101558.03;4922858;29;20454;-75
2022/03/25 02:42:49;;;;;;;24.52;12.07;;;;;;;10.06;38.00;101559.78;4922624;29;20028;-74
2022/03/25 02:45:35;;;;;;;21.67;11.90;;;;;;;10.12;37.54;101565.91;4907985;29;20028;-75
2022/03/25 02:48:20;;;;;;;19.27;11.77;;;;;;;9.97;38.00;101566.75;4921735;29;20478;-74
2022/03/25 02:51:06;;;;;;;18.58;11.90;;;;;;;9.94;37.84;101566.75;4921226;29;20036;-76
2022/03/25 02:53:52;;;;;;;22.33;11.90;;;;;;;9.95;37.37;101563.25;4921929;29;20087;-75
2022/03/25 02:56:38;;;;;;;22.23;10.77;;;;;;;9.76;37.88;101558.91;4921155;29;20028;-74
2022/03/25 02:59:25;;;;;;;19.98;11.55;;;;;;;9.72;37.82;101559.78;4921654;29;20043;-75
2022/03/25 03:02:12;;;;;;;21.42;12.40;;;;;;;9.65;38.41;101560.69;4921088;29;20086;-74
2022/03/25 03:04:58;;;;;;;26.95;13.48;;;;;;;9.63;37.77;101562.41;4921168;29;20032;-75
2022/03/25 03:07:48;;;;;;;24.73;12.35;;;;;;;9.66;38.42;101562.44;4920606;29;20087;-74
2022/03/25 03:10:34;;;;;;;24.63;12.65;;;;;;;9.36;38.86;101565.00;4921029;29;20040;-75
2022/03/25 03:13:20;;;;;;;30.13;13.57;;;;;;;9.63;38.60;101565.91;4921106;29;20090;-75
2022/03/25 03:16:06;;;;;;;25.83;13.30;;;;;;;9.57;38.54;101570.28;4921437;29;20453;-74
2022/03/25 03:18:52;;;;;;;25.42;12.20;;;;;;;9.64;38.02;101574.63;4920515;29;20118;-73
2022/03/25 03:21:38;;;;;;;20.83;11.88;;;;;;;9.74;38.30;101571.16;4920830;29;20040;-75
2022/03/25 03:24:24;;;;;;;26.63;13.23;;;;;;;9.10;39.05;101571.97;4920348;29;20032;-74
2022/03/25 03:27:11;;;;;;;25.58;12.77;;;;;;;9.43;38.92;101569.38;4920474;29;20036;-74
2022/03/25 03:29:57;;;;;;;26.13;12.65;;;;;;;9.04;40.00;101564.97;4907843;29;20047;-75
2022/03/25 03:32:42;;;;;;;27.63;13.13;;;;;;;9.22;39.14;101571.97;4906527;29;20035;-75
2022/03/25 03:35:28;;;;;;;25.75;13.07;;;;;;;9.51;38.69;101567.66;4921265;29;20063;-75
2022/03/25 03:38:14;;;;;;;26.25;13.00;;;;;;;9.15;39.71;101565.88;4921046;29;20040;-75
2022/03/25 03:41:00;;;;;;;29.25;13.15;;;;;;;8.72;39.90;101566.63;4920715;29;20028;-74
2022/03/25 03:43:46;;;;;;;31.63;13.43;;;;;;;8.39;40.97;101569.09;4920222;29;20108;-76
2022/03/25 03:46:33;;;;;;;26.70;13.35;;;;;;;8.07;41.26;101568.00;4906762;29;20024;-74
2022/03/25 03:49:19;;;;;;;30.65;13.68;;;;;;;7.74;41.60;101570.41;4920203;29;20091;-74
2022/03/25 03:52:05;;;;;;;45.67;16.65;;;;;;;7.70;42.09;101567.75;4920050;29;20472;-75
2022/03/25 03:54:51;;;;;;;43.50;16.27;;;;;;;7.72;42.58;101560.81;4906389;29;20032;-75
2022/03/25 03:57:37;;;;;;;45.92;16.80;;;;;;;7.90;42.50;101560.94;4906861;29;20416;-74
2022/03/25 04:00:26;;;;;;;31.88;14.50;;;;;;;8.35;41.51;101566.44;4920532;29;20454;-76
2022/03/25 04:03:12;;;;;;;29.92;14.00;;;;;;;8.04;41.85;101565.38;4919659;29;20020;-74
2022/03/25 04:06:00;;;;;;;25.92;13.75;;;;;;;7.95;42.56;101560.09;4920753;29;20028;-74
2022/03/25 04:08:45;;;;;;;39.42;16.15;;;;;;;7.55;43.30;101560.69;4920246;29;20123;-75
2022/03/25 04:11:31;;;;;;;28.65;13.30;;;;;;;7.23;43.69;101559.53;4920712;29;20043;-74
2022/03/25 04:14:21;;;;;;;34.13;13.30;;;;;;;7.59;43.10;101566.81;4919442;29;20051;-75
2022/03/25 04:17:07;;;;;;;29.67;14.13;;;;;;;7.50;43.35;101551.94;4906925;29;20028;-74
2022/03/25 04:19:53;;;;;;;23.42;12.20;;;;;;;7.54;43.21;101550.22;4919688;29;20102;-74
2022/03/25 04:22:38;;;;;;;22.45;11.70;;;;;;;7.37;43.07;101550.13;4905111;29;20028;-73
2022/03/25 04:25:24;;;;;;;22.38;11.75;;;;;;;7.31;43.96;101557.84;4919881;29;20043;-74
2022/03/25 04:28:10;;;;;;;23.63;12.40;;;;;;;7.15;44.01;101550.75;4919729;29;20032;-72
2022/03/25 04:30:56;;;;;;;28.67;13.50;;;;;;;7.46;43.63;101552.78;4920048;29;20039;-74
2022/03/25 04:33:41;;;;;;;26.88;14.07;;;;;;;7.30;43.81;101557.84;4919748;29;20028;-74
2022/03/25 04:36:27;;;;;;;28.98;15.10;;;;;;;7.40;43.72;101557.94;4919383;29;20473;-74
2022/03/25 04:39:13;;;;;;;24.90;14.48;;;;;;;7.66;43.27;101555.53;4919123;29;20118;-73
2022/03/25 04:41:59;;;;;;;29.67;13.63;;;;;;;7.79;43.20;101562.59;4906217;29;20042;-75
2022/03/25 04:44:45;;;;;;;25.67;13.15;;;;;;;7.29;43.86;101559.59;4905349;29;20040;-74
2022/03/25 04:47:30;;;;;;;26.60;13.82;;;;;;;7.66;43.17;101565.97;4919701;29;20028;-74
2022/03/25 04:50:16;;;;;;;27.10;13.18;;;;;;;7.50;43.66;101556.28;4919090;29;20035;-74
2022/03/25 04:53:02;;;;;;;26.20;13.63;;;;;;;7.67;42.93;101554.72;4905491;29;20068;-73
2022/03/25 04:55:48;;;;;;;26.65;13.60;;;;;;;7.72;43.18;101561.69;4919254;29;20039;-73
2022/03/25 04:58:34;;;;;;;26.10;14.13;;;;;;;7.68;43.56;101564.28;4919945;29;20099;-74
2022/03/25 05:01:19;;;;;;;27.70;13.73;;;;;;;7.75;43.14;101560.81;4920065;29;20031;-74
2022/03/25 05:04:05;;;;;;;30.20;14.32;;;;;;;7.92;42.91;101567.91;4919438;29;20357;-73
2022/03/25 05:06:51;;;;;;;27.52;13.90;;;;;;;7.86;43.14;101564.38;4905622;29;20063;-74
2022/03/25 05:09:37;;;;;;;29.92;13.73;;;;;;;7.89;43.19;101560.09;4924188;29;20024;-72
2022/03/25 05:12:22;;;;;;;24.95;13.52;;;;;;;7.78;43.06;101571.28;4919827;29;20032;-71
2022/03/25 05:15:10;;;;;;;25.85;12.85;;;;;;;7.94;42.99;101567.91;4918988;29;20052;-72
2022/03/25 05:17:55;;;;;;;24.77;12.65;;;;;;;8.13;42.81;101572.41;4918987;29;20386;-73
2022/03/25 05:20:41;;;;;;;24.05;12.70;;;;;;;8.25;42.76;101572.50;4918650;29;20024;-72
2022/03/25 05:23:27;;;;;;;21.50;12.27;;;;;;;8.12;42.67;101571.53;4919020;29;20111;-74
2022/03/25 05:26:13;;;;;;;21.40;12.27;;;;;;;8.31;42.36;101575.13;4919458;29;20473;-76
2022/03/25 05:28:59;;;;;;;21.30;11.73;;;;;;;8.49;42.20;101572.63;4919816;29;20119;-76
2022/03/25 05:31:45;;;;;;;24.90;12.90;;;;;;;8.78;41.89;101573.63;4919012;29;20063;-75
2022/03/25 05:34:31;;;;;;;24.70;11.88;;;;;;;8.49;42.49;101570.03;4923052;29;20347;-73
2022/03/25 05:37:16;;;;;;;25.42;11.55;;;;;;;8.67;42.71;101572.69;4923261;29;20039;-73
2022/03/25 05:40:03;;;;;;;26.95;11.18;;;;;;;8.52;42.66;101572.66;4923039;29;20028;-73
2022/03/25 05:42:50;;;;;;;25.17;11.80;;;;;;;8.77;42.60;101572.72;4922314;29;20016;-73
2022/03/25 05:45:35;;;;;;;25.15;11.48;;;;;;;8.81;42.49;101571.88;4908516;29;20024;-73
2022/03/25 05:48:21;;;;;;;22.90;11.73;;;;;;;8.75;42.88;101577.09;4922530;29;20107;-73
2022/03/25 05:51:07;;;;;;;24.23;12.00;;;;;;;8.98;42.80;101564.97;4922077;29;20120;-73
2022/03/25 05:53:53;;;;;;;26.73;12.90;;;;;;;8.94;42.74;101578.03;4922563;29;20036;-74
2022/03/25 05:56:39;;;;;;;30.33;12.48;;;;;;;9.11;42.90;101577.19;4922296;29;20031;-73
2022/03/25 05:59:25;;;;;;;23.42;12.15;;;;;;;9.14;42.62;101584.16;4921719;29;20032;-76
2022/03/25 06:02:10;;;;;;;23.48;11.77;;;;;;;9.28;42.72;101582.44;4923089;29;20046;-73
2022/03/25 06:04:56;;;;;;;22.17;11.02;;;;;;;9.40;42.23;101579.84;4923017;29;20036;-72
2022/03/25 06:07:43;;;;;;;19.33;10.95;;;;;;;9.66;41.92;101585.97;4908818;29;20469;-74
2022/03/25 06:10:29;;;;;;;22.65;11.60;;;;;;;9.43;42.17;101593.81;4908215;29;20369;-73
2022/03/25 06:13:15;;;;;;;20.70;10.80;;;;;;;9.66;42.08;101586.81;4921678;29;20123;-72
2022/03/25 06:16:01;;;;;;;19.40;10.73;;;;;;;9.71;42.06;101584.22;4922494;29;20357;-73
2022/03/25 06:18:47;;;;;;;23.40;11.75;;;;;;;9.79;41.91;101593.81;4908828;29;20043;-74
2022/03/25 06:21:33;;;;;;;26.40;12.75;;;;;;;9.92;42.02;101589.44;4907784;29;20480;-72
2022/03/25 06:24:19;;;;;;;21.65;12.35;;;;;;;10.18;41.29;101590.31;4908385;29;20115;-73
2022/03/25 06:27:04;;;;;;;27.20;15.68;;;;;;;10.13;43.41;101593.81;4921510;29;20036;-72
2022/03/25 06:29:50;;;;;;;23.85;14.18;;;;;;;10.02;44.05;101594.66;4908225;29;20119;-73
2022/03/25 06:32:36;;;;;;;27.60;13.98;;;;;;;9.71;45.49;101605.16;4921806;29;20202;-73
2022/03/25 06:35:22;;;;;;;24.05;14.70;;;;;;;9.58;46.64;101599.06;4921617;29;20115;-73
2022/03/25 06:38:08;;;;;;;29.20;14.13;;;;;;;10.12;45.37;101599.94;4907607;29;20028;-74
2022/03/25 06:40:54;;;;;;;23.23;13.73;;;;;;;10.17;45.50;101600.78;4923122;29;20113;-73
2022/03/25 06:43:39;;;;;;;26.30;13.75;;;;;;;10.21;45.50;101599.91;4922460;29;20359;-74
2022/03/25 06:46:25;;;;;;;24.58;13.25;;;;;;;10.58;44.57;101605.06;4922438;29;20353;-73
2022/03/25 06:49:11;;;;;;;31.75;14.68;;;;;;;10.35;44.38;101605.97;4908085;29;20082;-73
2022/03/25 06:51:57;;;;;;;22.92;12.23;;;;;;;10.87;42.75;101597.06;4923563;29;20040;-73
2022/03/25 06:54:43;;;;;;;21.00;11.77;;;;;;;11.09;41.12;101603.94;4923461;29;20370;-73
2022/03/25 06:57:29;;;;;;;19.58;10.90;;;;;;;11.13;40.57;101603.91;4909639;29;20063;-73
2022/03/25 07:00:17;;;;;;;22.17;12.80;;;;;;;10.96;41.84;101602.25;4922155;29;20032;-74
2022/03/25 07:03:03;;;;;;;23.88;12.32;;;;;;;11.01;42.47;101601.34;4921823;29;20035;-73
2022/03/25 07:05:52;;;;;;;26.23;12.73;;;;;;;10.98;42.52;101601.38;4923770;29;20032;-72
2022/03/25 07:08:39;;;;;;;23.83;11.43;;;;;;;11.33;40.90;101598.56;4925214;29;20370;-72
2022/03/25 07:11:25;;;;;;;18.98;10.25;;;;;;;11.70;39.78;101593.03;4927115;29;20107;-73
2022/03/25 07:14:11;;;;;;;18.38;10.45;;;;;;;11.90;39.50;101599.00;4914030;29;20044;-71
2022/03/25 07:16:57;;;;;;;19.80;11.18;;;;;;;11.58;39.79;101589.63;4912129;29;20091;-73
2022/03/25 07:19:43;;;;;;;15.10;10.18;;;;;;;11.77;39.14;101596.50;4927495;29;20035;-74
2022/03/25 07:22:28;;;;;;;20.85;10.20;;;;;;;12.01;39.21;101602.41;4924383;29;20024;-73
2022/03/25 07:25:15;;;;;;;29.80;15.30;;;;;;;12.21;38.73;101596.94;4910256;29;20036;-72
2022/03/25 07:28:02;;;;;;;20.70;11.25;;;;;;;12.18;38.56;101589.13;4925314;29;20035;-72
2022/03/25 07:30:48;;;;;;;16.48;10.82;;;;;;;12.18;38.82;101592.59;4909775;29;20032;-75
2022/03/25 07:33:34;;;;;;;19.63;10.63;;;;;;;12.33;38.41;101592.44;4921923;29;20046;-73
2022/03/25 07:36:20;;;;;;;18.67;10.65;;;;;;;12.38;38.76;101590.63;4921681;29;20050;-73
2022/03/25 07:39:06;;;;;;;21.35;11.55;;;;;;;12.70;38.11;101591.13;4921107;29;20043;-73
2022/03/25 07:41:51;;;;;;;29.27;14.60;;;;;;;12.71;37.88;101598.16;4921914;29;20032;-75
2022/03/25 07:44:39;;;;;;;18.80;10.52;;;;;;;12.62;37.93;101598.22;4921622;29;20357;-73
2022/03/25 07:47:24;;;;;;;21.08;10.75;;;;;;;12.92;37.50;101597.00;4928674;29;20036;-72
2022/03/25 07:50:12;;;;;;;19.70;11.23;;;;;;;13.38;37.08;101584.97;4909135;29;20036;-74
2022/03/25 07:52:57;;;;;;;20.75;11.35;;;;;;;13.57;36.92;101597.81;4907398;29;20190;-73
2022/03/25 07:55:44;;;;;;;17.27;10.05;;;;;;;13.61;36.42;101589.00;4920718;29;20111;-74
2022/03/25 07:58:30;;;;;;;15.25;9.70;;;;;;;13.96;35.56;101585.75;4920383;29;20365;-73
2022/03/25 08:01:16;;;;;;;16.27;10.07;;;;;;;13.99;35.90;101585.72;4905725;29;20397;-73
2022/03/25 08:04:02;;;;;;;15.77;10.25;;;;;;;14.61;35.47;101578.38;4906390;29;20024;-72
2022/03/25 08:06:48;;;;;;;17.48;9.55;;;;;;;14.54;34.76;101583.78;4906717;29;20140;-73
2022/03/25 08:09:34;;;;;;;19.23;11.50;;;;;;;14.64;34.97;101580.94;4919483;29;20115;-72
2022/03/25 08:12:21;;;;;;;15.65;9.35;;;;;;;14.94;33.98;101576.81;4920578;29;20105;-72
2022/03/25 08:15:07;;;;;;;13.88;9.30;;;;;;;14.59;34.69;101569.63;4920871;29;20477;-73
2022/03/25 08:18:01;;;;;;;17.27;9.93;;;;;;;14.93;34.23;101568.91;4921555;29;20032;-73
2022/03/25 08:20:48;;;;;;;18.00;9.98;;;;;;;14.90;34.03;101564.56;4919860;29;20032;-73
2022/03/25 08:29:43;;;;;;;19.27;9.80;;;;;;;15.64;33.25;101558.47;4920341;29;20126;-73
2022/03/25 08:32:28;;;;;;;18.55;9.65;;;;;;;15.41;33.61;101554.63;4920757;29;20028;-74
2022/03/25 08:35:14;;;;;;;15.52;9.27;;;;;;;15.96;33.09;101558.53;4920991;29;20028;-72
2022/03/25 08:38:00;;;;;;;15.18;9.07;;;;;;;15.75;32.42;101551.13;4920126;29;20027;-74
2022/03/25 08:40:46;;;;;;;16.02;9.10;;;;;;;16.03;32.37;101548.66;4921986;29;20130;-73
2022/03/25 08:43:32;;;;;;;14.75;9.20;;;;;;;15.80;32.50;101551.03;4908367;29;20047;-73
2022/03/25 08:46:20;;;;;;;16.50;9.20;;;;;;;16.47;32.51;101541.25;4922632;29;20031;-73
2022/03/25 08:49:06;;;;;;;17.13;9.95;;;;;;;16.38;31.92;101545.91;4921657;29;20060;-73
2022/03/25 08:51:51;;;;;;;24.85;10.35;;;;;;;16.15;32.24;101549.19;4919946;29;20111;-73
2022/03/25 08:54:37;;;;;;;12.60;8.60;;;;;;;16.48;31.90;101544.78;4919231;29;20051;-74
2022/03/25 08:57:23;;;;;;;14.50;9.60;;;;;;;16.51;31.51;101545.53;4919088;29;20035;-73
2022/03/25 09:00:12;;;;;;;18.80;9.73;;;;;;;16.45;32.07;101539.56;4906423;29;20372;-73
2022/03/25 09:02:58;;;;;;;16.50;10.10;;;;;;;16.30;31.36;101538.19;4919377;29;20024;-74
2022/03/25 09:05:44;;;;;;;14.00;9.38;;;;;;;15.91;32.27;101527.84;4919561;29;20118;-73
2022/03/25 09:08:30;;;;;;;13.88;9.52;;;;;;;16.42;32.43;101523.78;4918778;29;20044;-72
2022/03/25 09:11:16;;;;;;;16.20;10.15;;;;;;;16.43;31.33;101534.31;4906473;29;20035;-73
2022/03/25 09:14:02;;;;;;;14.27;8.90;;;;;;;16.29;31.60;101525.00;4918059;29;20062;-73
2022/03/25 09:16:55;;;;;;;14.80;9.60;;;;;;;17.09;31.36;101515.56;4919790;29;20095;-73
2022/03/25 09:19:43;;;;;;;18.73;10.05;;;;;;;16.49;31.86;101520.06;4920094;28;20452;-74
2022/03/25 09:22:31;;;;;;;13.43;9.98;;;;;;;17.17;31.41;101526.78;4905723;29;20047;-74
2022/03/25 09:25:17;;;;;;;14.90;9.45;;;;;;;17.15;31.43;101515.34;4906273;28;20449;-74
2022/03/25 09:28:03;;;;;;;17.27;10.00;;;;;;;17.13;31.20;101519.84;4906350;29;20549;-73
2022/03/25 09:30:49;;;;;;;18.50;10.20;;;;;;;16.36;31.62;101518.63;4918886;29;20461;-72
2022/03/25 09:33:34;;;;;;;15.15;9.27;;;;;;;16.44;31.91;101506.94;4918993;29;20064;-74
2022/03/25 09:36:20;;;;;;;19.95;10.40;;;;;;;16.72;31.53;101510.50;4905671;29;20153;-73
2022/03/25 09:39:06;;;;;;;17.15;9.65;;;;;;;16.25;32.50;101516.31;4918619;29;20035;-74
2022/03/25 09:41:52;;;;;;;18.50;10.00;;;;;;;15.87;32.92;101511.16;4919050;29;20032;-74
2022/03/25 09:44:40;;;;;;;22.58;9.85;;;;;;;16.41;32.11;101512.34;4918540;29;20024;-74
2022/03/25 09:47:26;;;;;;;15.85;9.60;;;;;;;16.86;31.99;101512.75;4905451;29;20094;-74
2022/03/25 09:50:14;;;;;;;14.23;9.88;;;;;;;16.76;32.19;101506.00;4918572;29;20035;-74
2022/03/25 09:53:00;;;;;;;21.08;10.82;;;;;;;16.45;31.54;101505.19;4918621;29;20036;-73
2022/03/25 09:55:48;;;;;;;28.15;11.63;;;;;;;16.60;32.52;101499.44;4919134;29;20043;-75
2022/03/25 09:58:34;;;;;;;18.75;10.20;;;;;;;16.57;31.72;101505.69;4919097;29;20028;-74
2022/03/25 10:01:20;;;;;;;18.40;10.57;;;;;;;16.10;32.78;101511.44;4904799;29;20039;-73
2022/03/25 10:04:07;;;;;;;17.23;10.48;;;;;;;16.03;32.26;101504.56;4919010;29;20024;-73
2022/03/25 10:06:54;;;;;;;17.25;10.38;;;;;;;16.44;31.89;101500.81;4919500;29;20095;-74
2022/03/25 10:09:40;;;;;;;16.23;10.43;;;;;;;16.12;32.30;101490.25;4917836;29;20039;-74
2022/03/25 10:12:27;;;;;;;14.93;10.07;;;;;;;16.15;32.15;101482.22;4919393;29;20076;-73
2022/03/25 10:15:20;;;;;;;17.13;10.30;;;;;;;16.89;31.77;101491.50;4918046;29;20063;-74
2022/03/25 10:18:07;;;;;;;21.52;11.52;;;;;;;16.44;31.53;101496.38;4918789;29;20028;-74
2022/03/25 10:20:54;;;;;;;20.65;10.77;;;;;;;16.57;30.71;101486.31;4921025;29;20471;-74
2022/03/25 10:23:44;;;;;;;19.65;10.82;;;;;;;16.20;31.29;101480.31;4922152;29;20043;-74
2022/03/25 10:26:36;;;;;;;31.05;17.85;;;;;;;16.88;31.07;101476.53;4939429;29;20038;-75
2022/03/25 10:29:22;;;;;;;21.30;11.38;;;;;;;16.82;30.47;101476.69;4924392;29;20330;-74
2022/03/25 10:32:10;;;;;;;18.88;10.80;;;;;;;16.83;30.55;101471.38;4907821;29;20377;-74
2022/03/25 10:35:10;;;;;;;21.33;11.15;;;;;;;16.96;30.63;101475.34;4921938;29;20091;-73
2022/03/25 10:37:58;;;;;;;19.50;11.25;;;;;;;17.11;30.51;101471.34;4921968;29;20043;-72
2022/03/25 10:40:51;;;;;;;18.42;10.63;;;;;;;17.38;30.04;101473.97;4907902;29;20369;-75
2022/03/25 10:44:00;;;;;;;19.20;11.30;;;;;;;17.45;29.89;101470.22;4921225;29;20082;-74
2022/03/25 10:46:53;;;;;;;19.02;11.68;;;;;;;17.38;29.86;101467.81;4921553;29;20024;-75
2022/03/25 10:49:43;;;;;;;20.25;12.10;;;;;;;17.63;29.69;101463.44;4922017;29;20036;-74
2022/03/25 10:52:38;;;;;;;17.00;11.63;;;;;;;17.55;29.59;101470.78;4908137;29;20036;-76
2022/03/25 10:55:24;;;;;;;17.15;10.73;;;;;;;16.71;30.23;101465.56;4921950;29;20039;-74
2022/03/25 10:58:10;;;;;;;33.55;15.85;;;;;;;17.73;29.90;101463.06;4922183;29;20114;-73
2022/03/25 11:00:57;;;;;;;30.23;18.75;;;;;;;17.91;29.33;101464.19;4921382;29;20039;-74
2022/03/25 11:03:44;;;;;;;16.65;11.32;;;;;;;17.74;29.07;101469.25;4907188;29;20048;-74
2022/03/25 11:06:33;;;;;;;18.92;11.70;;;;;;;17.67;29.23;101463.28;4921832;29;20032;-75
2022/03/25 11:09:22;;;;;;;17.77;11.07;;;;;;;17.64;29.36;101462.53;4907571;29;20047;-74
2022/03/25 11:12:11;;;;;;;21.80;11.15;;;;;;;17.76;29.38;101462.13;4921543;29;20072;-74
2022/03/25 11:14:59;;;;;;;20.23;10.70;;;;;;;18.52;28.89;101450.44;4907336;29;20040;-73
2022/03/25 11:17:45;;;;;;;20.25;11.02;;;;;;;18.43;29.18;101449.00;4920971;29;20429;-74
2022/03/25 11:20:32;;;;;;;15.73;10.75;;;;;;;18.35;28.68;101453.75;4919684;29;20087;-73
2022/03/25 11:23:23;;;;;;;22.45;12.52;;;;;;;17.87;29.71;101452.84;4920706;29;20085;-73
2022/03/25 11:26:13;;;;;;;22.95;12.90;;;;;;;18.35;28.92;101451.09;4920458;29;20107;-73
2022/03/25 11:29:01;;;;;;;17.38;11.52;;;;;;;18.70;28.63;101449.75;4907194;29;20036;-73
2022/03/25 11:32:11;;;;;;;28.35;15.02;;;;;;;18.64;28.17;101444.66;4907122;29;20133;-74
2022/03/25 11:34:57;;;;;;;18.27;11.23;;;;;;;18.09;29.01;101450.28;4919921;29;20067;-74
2022/03/25 11:37:43;;;;;;;19.27;12.60;;;;;;;18.26;29.01;101442.56;4920424;29;20063;-74
2022/03/25 11:40:28;;;;;;;18.50;11.75;;;;;;;18.28;28.93;101444.25;4919985;29;20098;-75
2022/03/25 11:43:18;;;;;;;17.15;11.13;;;;;;;18.96;28.47;101445.13;4920298;29;20402;-74
2022/03/25 11:46:09;;;;;;;17.27;11.15;;;;;;;19.09;28.23;101445.50;4907350;29;20027;-74
2022/03/25 11:48:54;;;;;;;16.48;11.07;;;;;;;18.71;28.00;101443.50;4920936;29;20120;-72
2022/03/25 11:51:40;;;;;;;16.92;10.65;;;;;;;18.26;28.43;101446.09;4919636;29;20381;-72
2022/03/25 11:54:42;;;;;;;19.25;10.98;;;;;;;18.54;28.08;101445.94;4920689;29;20444;-73
2022/03/25 11:57:35;;;;;;;16.67;10.65;;;;;;;18.11;28.72;101451.97;4919025;29;20032;-73
2022/03/25 12:00:26;;;;;;;19.02;11.02;;;;;;;18.05;29.18;101443.38;4920374;29;20063;-74
2022/03/25 12:03:15;;;;;;;15.63;10.38;;;;;;;18.43;28.03;101443.72;4906563;29;20032;-75
2022/03/25 12:06:04;;;;;;;16.63;10.30;;;;;;;18.05;28.99;101435.41;4906606;29;20027;-74
2022/03/25 12:09:06;;;;;;;15.48;9.90;;;;;;;18.32;28.61;101444.97;4919884;29;20032;-74
2022/03/25 12:11:58;;;;;;;15.20;10.65;;;;;;;18.29;28.22;101450.44;4920378;29;20039;-74
2022/03/25 12:15:10;;;;;;;16.55;10.30;;;;;;;18.03;28.80;101440.78;4920244;29;20354;-74
2022/03/25 12:18:34;;;;;;;16.90;10.32;;;;;;;18.00;28.59;101442.66;4906279;29;20422;-73
2022/03/25 12:21:20;;;;;;;16.38;9.88;;;;;;;18.39;28.27;101439.44;4919507;29;20480;-73
2022/03/25 12:24:06;;;;;;;16.60;9.32;;;;;;;17.95;28.68;101434.00;4920830;29;20031;-73
2022/03/25 12:27:02;;;;;;;17.45;9.70;;;;;;;18.78;27.82;101448.50;4919476;29;20110;-74
2022/03/25 12:29:51;;;;;;;14.32;8.95;;;;;;;18.44;28.43;101440.13;4907107;29;20091;-73
2022/03/25 12:32:38;;;;;;;21.08;10.00;;;;;;;18.44;28.75;101433.94;4920338;28;20028;-74
2022/03/25 12:35:28;;;;;;;14.75;9.43;;;;;;;18.40;28.90;101438.50;4919503;29;20036;-74
2022/03/25 12:38:17;;;;;;;15.50;9.57;;;;;;;18.40;28.39;101440.28;4893727;29;20031;-73
2022/03/25 12:41:03;;;;;;;13.57;8.93;;;;;;;18.51;28.14;101436.31;4920536;29;20035;-74
2022/03/25 12:43:56;;;;;;;14.82;9.30;;;;;;;18.24;28.50;101433.78;4905589;29;20032;-72
2022/03/25 12:46:42;;;;;;;16.65;8.90;;;;;;;18.86;28.01;101434.94;4920972;28;20111;-74
2022/03/25 12:49:28;;;;;;;11.90;9.02;;;;;;;18.77;28.13;101430.00;4920292;29;20107;-74
2022/03/25 12:52:14;;;;;;;14.45;9.68;;;;;;;18.49;28.48;101426.69;4906631;29;20032;-73